createdAt,value
2018-04-27T00:00:05.406Z,27.26
2018-04-27T00:02:34.789Z,27.64
2018-04-27T00:05:04.185Z,27.90
2018-04-27T00:07:33.729Z,27.77
2018-04-27T00:10:03.100Z,27.13
2018-04-27T00:12:33.497Z,27.78
2018-04-27T00:15:03.213Z,28.13
2018-04-27T00:17:32.739Z,28.58
2018-04-27T00:20:02.401Z,28.13
2018-04-27T00:22:31.215Z,27.91
2018-04-27T00:25:00.681Z,28.13
2018-04-27T00:27:30.264Z,28.42
2018-04-27T00:30:00.256Z,28.06
2018-04-27T00:32:30.001Z,28.13
2018-04-27T00:35:00.256Z,27.92
2018-04-27T00:37:30.270Z,27.47
2018-04-27T00:40:00.012Z,27.81
2018-04-27T00:42:29.283Z,27.42
2018-04-27T00:44:58.610Z,28.28
2018-04-27T00:47:27.926Z,28.76
2018-04-27T00:49:57.341Z,29.10
2018-04-27T00:52:27.280Z,29.03
2018-04-27T00:54:56.525Z,28.63
2018-04-27T00:57:25.437Z,28.74
2018-04-27T00:59:54.939Z,29.06
2018-04-27T01:02:24.827Z,29.30
2018-04-27T01:04:53.691Z,29.09
2018-04-27T01:07:23.479Z,28.94
2018-04-27T01:09:52.809Z,29.57
2018-04-27T01:12:23.086Z,29.51
2018-04-27T01:14:52.422Z,29.30
2018-04-27T01:17:21.712Z,28.99
2018-04-27T01:19:50.826Z,28.89
2018-04-27T01:22:20.461Z,29.02
2018-04-27T01:24:49.905Z,29.95
2018-04-27T01:27:18.680Z,29.59
2018-04-27T01:29:47.751Z,29.69
2018-04-27T01:32:17.971Z,29.09
2018-04-27T01:34:47.530Z,30.25
2018-04-27T01:37:16.146Z,29.90
2018-04-27T01:39:45.543Z,29.92
2018-04-27T01:42:15.268Z,29.82
2018-04-27T01:44:44.655Z,29.63
2018-04-27T01:47:13.891Z,29.95
2018-04-27T01:49:43.564Z,30.52
2018-04-27T01:52:12.983Z,33.96
2018-04-27T01:54:42.529Z,33.84
2018-04-27T01:57:11.085Z,37.10
2018-04-27T01:59:40.646Z,37.60
2018-04-27T02:02:09.553Z,37.55
2018-04-27T02:04:39.032Z,38.38
2018-04-27T02:07:08.244Z,38.50
2018-04-27T02:09:38.709Z,38.64
2018-04-27T02:12:08.292Z,38.03
2018-04-27T02:14:37.229Z,38.70
2018-04-27T02:17:06.625Z,37.95
2018-04-27T02:19:36.523Z,38.58
2018-04-27T02:22:05.433Z,38.76
2018-04-27T02:24:34.795Z,39.11
2018-04-27T02:27:03.540Z,38.87
2018-04-27T02:29:33.155Z,38.95
2018-04-27T02:32:02.010Z,39.07
2018-04-27T02:34:31.173Z,38.56
2018-04-27T02:37:00.646Z,38.94
2018-04-27T02:39:29.891Z,39.09
2018-04-27T02:42:00.004Z,39.10
2018-04-27T02:44:29.223Z,38.22
2018-04-27T02:46:58.421Z,37.64
2018-04-27T02:49:28.230Z,37.69
2018-04-27T02:51:57.466Z,38.56
2018-04-27T02:54:27.200Z,37.70
2018-04-27T02:56:56.432Z,37.18
2018-04-27T02:59:25.913Z,37.27
2018-04-27T03:01:54.794Z,37.48
2018-04-27T03:04:23.948Z,37.84
2018-04-27T03:06:53.299Z,38.06
2018-04-27T03:09:22.347Z,38.15
2018-04-27T03:11:51.102Z,38.29
2018-04-27T03:14:20.830Z,38.30
2018-04-27T03:16:49.604Z,37.80
2018-04-27T03:19:19.216Z,37.05
2018-04-27T03:21:48.862Z,37.84
2018-04-27T03:24:18.026Z,38.33
2018-04-27T03:26:47.752Z,37.36
2018-04-27T03:29:16.866Z,37.30
2018-04-27T03:31:46.878Z,37.32
2018-04-27T03:34:16.954Z,36.26
2018-04-27T03:36:46.581Z,35.28
2018-04-27T03:39:15.997Z,36.37
2018-04-27T03:41:46.030Z,36.69
2018-04-27T03:44:15.316Z,36.30
2018-04-27T03:46:44.266Z,36.63
2018-04-27T03:49:13.651Z,37.55
2018-04-27T03:51:43.341Z,36.94
2018-04-27T03:54:12.993Z,35.99
2018-04-27T03:56:43.063Z,36.81
2018-04-27T03:59:12.640Z,37.19
2018-04-27T04:01:53.574Z,36.72
2018-04-27T04:04:33.161Z,36.65
2018-04-27T04:07:01.839Z,36.05
2018-04-27T04:09:30.776Z,37.27
2018-04-27T04:11:59.973Z,37.48
2018-04-27T04:14:30.176Z,36.99
2018-04-27T04:16:59.244Z,37.31
2018-04-27T04:19:28.497Z,36.61
2018-04-27T04:21:57.392Z,36.98
2018-04-27T04:24:26.796Z,36.97
2018-04-27T04:26:55.681Z,37.76
2018-04-27T04:29:25.314Z,37.50
2018-04-27T04:31:55.607Z,37.18
2018-04-27T04:34:24.667Z,36.62
2018-04-27T04:36:54.095Z,37.84
2018-04-27T04:39:23.392Z,37.44
2018-04-27T04:41:52.076Z,36.66
2018-04-27T04:44:21.478Z,37.25
2018-04-27T04:46:50.878Z,36.23
2018-04-27T04:49:20.655Z,35.20
2018-04-27T04:51:50.192Z,35.91
2018-04-27T04:54:19.496Z,35.49
2018-04-27T04:56:48.853Z,35.23
2018-04-27T04:59:18.019Z,34.98
2018-04-27T05:01:47.518Z,34.53
2018-04-27T05:04:17.096Z,35.62
2018-04-27T05:06:46.694Z,36.50
2018-04-27T05:09:16.091Z,37.46
2018-04-27T05:11:45.587Z,37.97
2018-04-27T05:14:15.976Z,37.38
2018-04-27T05:16:44.804Z,36.80
2018-04-27T05:19:14.228Z,36.75
2018-04-27T05:21:43.694Z,37.05
2018-04-27T05:24:12.972Z,37.66
2018-04-27T05:26:42.461Z,37.92
2018-04-27T05:29:11.358Z,37.57
2018-04-27T05:31:40.227Z,37.51
2018-04-27T05:34:11.472Z,37.51
2018-04-27T05:36:40.879Z,37.38
2018-04-27T05:39:10.554Z,37.34
2018-04-27T05:41:39.957Z,37.27
2018-04-27T05:44:09.955Z,37.41
2018-04-27T05:46:39.651Z,37.11
2018-04-27T05:49:09.446Z,36.97
2018-04-27T05:51:38.522Z,36.96
2018-04-27T05:54:07.727Z,37.19
2018-04-27T05:56:37.752Z,37.22
2018-04-27T05:59:06.854Z,37.05
2018-04-27T06:01:35.702Z,37.00
2018-04-27T06:04:14.214Z,36.98
2018-04-27T06:06:43.836Z,36.94
2018-04-27T06:09:13.855Z,36.06
2018-04-27T06:11:43.301Z,36.13
2018-04-27T06:14:12.874Z,35.70
2018-04-27T06:16:41.980Z,36.20
2018-04-27T06:19:12.564Z,36.39
2018-04-27T06:21:42.006Z,36.20
2018-04-27T06:24:11.589Z,36.41
2018-04-27T06:26:41.075Z,36.33
2018-04-27T06:29:10.225Z,36.44
2018-04-27T06:31:39.302Z,36.45
2018-04-27T06:34:08.123Z,36.30
2018-04-27T06:36:37.393Z,36.18
2018-04-27T06:39:06.856Z,36.04
2018-04-27T06:41:36.983Z,36.19
2018-04-27T06:44:07.072Z,36.18
2018-04-27T06:46:36.809Z,36.17
2018-04-27T06:49:06.574Z,36.37
2018-04-27T06:51:36.010Z,36.43
2018-04-27T06:54:05.123Z,36.52
2018-04-27T06:56:34.476Z,36.62
2018-04-27T06:59:04.792Z,35.57
2018-04-27T07:01:34.735Z,35.98
2018-04-27T07:04:06.626Z,36.25
2018-04-27T07:06:36.459Z,36.37
2018-04-27T07:11:55.872Z,36.34
2018-04-27T07:14:30.857Z,36.28
2018-04-27T07:22:47.296Z,36.35
2018-04-27T07:25:20.289Z,36.43
2018-04-27T07:27:53.103Z,36.33
2018-04-27T07:30:26.208Z,36.52
2018-04-27T07:33:01.247Z,36.53
2018-04-27T07:41:13.301Z,36.18
2018-04-27T07:43:47.640Z,35.74
2018-04-27T07:46:16.691Z,36.71
2018-04-27T07:48:45.993Z,36.45
2018-04-27T07:51:17.787Z,36.43
2018-04-27T07:53:46.732Z,36.24
2018-04-27T07:56:16.690Z,36.17
2018-04-27T07:58:45.988Z,36.10
2018-04-27T10:41:24.749Z,33.59
2018-04-27T10:43:54.520Z,32.91
2018-04-27T10:46:24.247Z,33.03
2018-04-27T10:48:53.531Z,33.28
2018-04-27T10:51:23.911Z,33.24
2018-04-27T10:53:54.208Z,33.22
2018-04-27T10:56:23.931Z,33.08
2018-04-27T10:58:53.471Z,32.40
2018-04-27T11:01:23.617Z,32.54
2018-04-27T11:03:53.501Z,32.37
2018-04-27T11:06:24.047Z,32.27
2018-04-27T11:08:54.256Z,32.53
2018-04-27T11:11:24.045Z,32.58
2018-04-27T11:13:54.441Z,32.34
2018-04-27T11:22:05.265Z,32.46
2018-04-27T11:24:35.909Z,32.36
2018-04-27T11:27:05.129Z,32.22
2018-04-27T11:29:34.088Z,32.31
2018-04-27T11:32:03.627Z,32.37
2018-04-27T11:34:33.030Z,32.17
2018-04-27T11:37:02.667Z,32.05
2018-04-27T11:39:32.355Z,32.20
2018-04-27T11:42:02.250Z,32.16
2018-04-27T11:44:32.071Z,32.20
2018-04-27T11:47:01.617Z,32.23
2018-04-27T11:49:30.795Z,32.36
2018-04-27T11:52:00.693Z,32.15
2018-04-27T12:43:11.602Z,30.94
2018-04-27T12:45:41.272Z,32.12
2018-04-27T12:48:10.580Z,32.19
2018-04-27T12:50:40.468Z,32.34
2018-04-27T12:53:10.695Z,32.26
2018-04-27T12:55:41.106Z,32.25
2018-04-27T12:58:10.935Z,32.29
2018-04-27T13:00:40.137Z,32.30
2018-04-27T13:03:10.493Z,32.40
2018-04-27T13:05:39.666Z,32.36
2018-04-27T13:08:08.651Z,31.95
2018-04-27T13:10:37.448Z,32.02
2018-04-27T13:13:07.256Z,31.92
2018-04-27T13:15:37.076Z,31.97
2018-04-27T13:18:07.001Z,32.00
2018-04-27T13:20:36.094Z,31.06
2018-04-27T13:23:05.578Z,31.81
2018-04-27T13:25:35.578Z,32.07
2018-04-27T13:28:04.352Z,32.07
2018-04-27T13:30:33.512Z,32.02
2018-04-27T13:33:02.635Z,32.07
2018-04-27T13:35:31.716Z,32.09
2018-04-27T13:38:00.906Z,31.58
2018-04-27T13:40:30.417Z,31.48
2018-04-27T13:42:59.795Z,31.94
2018-04-27T13:45:29.900Z,31.92
2018-04-27T13:47:58.900Z,32.30
2018-04-27T13:50:28.389Z,32.04
2018-04-27T13:52:57.913Z,32.39
2018-04-27T13:55:26.908Z,32.38
2018-04-27T13:57:56.004Z,32.58
2018-04-27T14:00:24.936Z,32.60
2018-04-27T14:02:54.166Z,32.69
2018-04-27T14:05:23.813Z,32.69
2018-04-27T14:07:53.339Z,32.89
2018-04-27T14:10:23.545Z,32.81
2018-04-27T14:12:53.356Z,32.85
2018-04-27T14:15:22.721Z,33.11
2018-04-27T14:17:52.884Z,32.98
2018-04-27T14:20:22.424Z,33.12
2018-04-27T14:22:51.300Z,33.13
2018-04-27T14:25:20.431Z,33.07
2018-04-27T14:27:50.146Z,33.19
2018-04-27T14:30:19.864Z,33.10
2018-04-27T14:32:48.723Z,33.20
2018-04-27T14:35:17.666Z,33.15
2018-04-27T14:37:46.694Z,33.19
2018-04-27T14:40:15.852Z,33.04
2018-04-27T14:42:44.894Z,32.87
2018-04-27T14:45:14.024Z,32.82
2018-04-27T14:47:44.556Z,32.67
2018-04-27T14:50:13.803Z,32.86
2018-04-27T14:52:42.586Z,32.94
2018-04-27T14:55:11.621Z,32.95
2018-04-27T14:57:41.312Z,32.88
2018-04-27T15:00:10.729Z,32.84
2018-04-27T15:02:40.388Z,33.04
2018-04-27T15:05:09.958Z,33.18
2018-04-27T15:07:39.470Z,33.16
2018-04-27T15:10:08.308Z,33.41
2018-04-27T15:12:37.227Z,33.49
2018-04-27T15:15:07.317Z,33.43
2018-04-27T15:17:36.800Z,33.60
2018-04-27T15:20:06.234Z,33.54
2018-04-27T15:22:35.431Z,33.61
2018-04-27T15:25:04.671Z,33.65
2018-04-27T15:27:34.986Z,33.74
2018-04-27T15:30:03.734Z,33.87
2018-04-27T15:32:32.978Z,33.93
2018-04-27T15:35:02.411Z,33.88
2018-04-27T15:37:32.526Z,33.94
2018-04-27T15:40:01.666Z,34.07
2018-04-27T15:42:31.008Z,34.40
2018-04-27T15:44:59.619Z,34.44
2018-04-27T15:47:29.514Z,34.51
2018-04-27T15:49:59.830Z,34.45
2018-04-27T15:52:29.102Z,34.48
2018-04-27T15:54:58.440Z,34.59
2018-04-27T15:57:27.908Z,34.57
2018-04-27T15:59:57.472Z,34.54
2018-04-27T16:02:27.509Z,34.60
2018-04-27T16:04:57.100Z,34.61
2018-04-27T16:07:26.453Z,34.67
2018-04-27T16:09:57.049Z,34.58
2018-04-27T16:12:26.276Z,34.64
2018-04-27T16:14:56.036Z,34.70
2018-04-27T16:17:25.918Z,34.87
2018-04-27T16:19:55.400Z,34.75
2018-04-27T16:22:24.934Z,34.87
2018-04-27T16:24:54.590Z,34.97
2018-04-27T16:27:23.843Z,35.20
2018-04-27T16:29:53.942Z,34.82
2018-04-27T16:32:23.202Z,34.87
2018-04-27T16:34:52.943Z,34.23
2018-04-27T16:37:22.784Z,33.52
2018-04-27T16:39:52.124Z,32.81
2018-04-27T16:42:21.263Z,32.20
2018-04-27T16:44:51.232Z,32.54
2018-04-27T16:47:20.243Z,32.32
2018-04-27T16:49:49.228Z,31.66
2018-04-27T16:52:18.673Z,31.69
2018-04-27T16:54:47.740Z,31.73
2018-04-27T16:57:18.182Z,31.17
2018-04-27T16:59:48.526Z,31.19
2018-04-27T17:02:18.036Z,31.18
2018-04-27T17:04:47.613Z,30.73
2018-04-27T17:07:16.937Z,30.06
2018-04-27T17:09:46.935Z,30.00
2018-04-27T17:12:16.347Z,29.17
2018-04-27T17:14:46.270Z,29.55
2018-04-27T17:17:15.621Z,29.28
2018-04-27T17:19:45.110Z,28.58
2018-04-27T17:22:14.602Z,29.39
2018-04-27T17:24:44.906Z,29.28
2018-04-27T17:27:13.863Z,29.16
2018-04-27T17:29:43.955Z,29.24
2018-04-27T17:32:13.576Z,29.51
2018-04-27T17:34:43.932Z,29.12
2018-04-27T17:37:13.466Z,29.17
2018-04-27T17:39:43.110Z,28.74
2018-04-27T17:42:12.096Z,29.27
2018-04-27T17:44:41.304Z,29.09
2018-04-27T17:47:11.313Z,29.17
2018-04-27T17:49:41.176Z,28.70
2018-04-27T17:52:10.466Z,28.97
2018-04-27T17:54:40.367Z,29.20
2018-04-27T17:57:10.045Z,28.81
2018-04-27T17:59:39.705Z,29.08
2018-04-27T18:02:08.691Z,28.77
2018-04-27T18:04:38.617Z,29.02
2018-04-27T18:07:08.558Z,29.07
2018-04-27T18:09:38.060Z,29.25
2018-04-27T18:12:06.901Z,28.47
2018-04-27T18:14:35.891Z,28.79
2018-04-27T18:17:05.631Z,28.22
2018-04-27T18:19:34.876Z,28.55
2018-04-27T18:22:04.295Z,28.58
2018-04-27T20:29:46.536Z,30.18
2018-04-27T20:32:15.566Z,30.36
2018-04-27T20:34:45.705Z,30.15
2018-04-27T20:37:15.671Z,29.68
2018-04-27T20:39:45.753Z,29.63
2018-04-27T20:42:15.740Z,29.71
2018-04-27T20:44:46.187Z,30.08
2018-04-27T20:47:16.205Z,30.06
2018-04-27T20:49:45.644Z,29.79
2018-04-27T20:52:15.497Z,30.03
2018-04-27T20:54:45.236Z,30.33
2018-04-27T20:57:15.254Z,30.64
2018-04-27T20:59:44.442Z,29.99
2018-04-27T21:02:13.746Z,29.92
2018-04-27T21:04:43.296Z,30.04
2018-04-27T21:07:12.720Z,30.17
2018-04-27T21:09:42.944Z,30.54
2018-04-27T21:12:12.513Z,29.79
2018-04-27T21:14:42.815Z,30.13
2018-04-27T21:17:12.030Z,30.38
2018-04-27T21:19:42.741Z,30.68
2018-04-27T21:22:14.166Z,30.24
2018-04-27T21:24:43.315Z,29.85
2018-04-27T21:27:13.425Z,29.88
2018-04-27T21:29:43.589Z,30.19
2018-04-27T21:32:13.555Z,30.43
2018-04-27T21:34:43.538Z,30.26
2018-04-27T21:37:12.689Z,29.98
2018-04-27T21:39:43.116Z,30.25
2018-04-27T21:42:14.238Z,30.35
2018-04-27T21:44:46.262Z,30.39
2018-04-27T21:47:26.683Z,30.26
2018-04-27T21:49:56.159Z,29.88
2018-04-27T21:52:33.222Z,29.54
2018-04-27T21:55:03.414Z,29.94
2018-04-27T21:57:41.620Z,29.90
2018-04-27T22:00:20.803Z,30.02
2018-04-27T22:06:07.092Z,29.94
2018-04-27T22:11:52.237Z,29.83
2018-04-27T22:14:36.558Z,29.80
2018-04-27T22:17:16.898Z,29.90
2018-04-27T22:19:46.649Z,29.61
2018-04-27T22:22:16.383Z,30.03
2018-04-27T22:25:01.705Z,30.24
2018-04-27T22:27:31.715Z,29.56
2018-04-27T22:32:55.909Z,29.96
2018-04-27T22:35:33.099Z,30.01
2018-04-27T22:38:02.625Z,30.22
2018-04-27T22:40:34.785Z,29.71
2018-04-27T22:43:04.725Z,29.66
2018-04-27T22:45:37.083Z,30.14
2018-04-27T23:36:20.556Z,29.94
2018-04-27T23:38:50.326Z,30.32
2018-04-27T23:43:47.218Z,30.11
2018-04-27T23:46:16.238Z,30.43
2018-04-27T23:48:45.817Z,30.09
2018-04-27T23:51:16.222Z,29.87
2018-04-27T23:53:45.870Z,30.25
2018-04-27T23:56:15.607Z,30.09
2018-04-27T23:58:45.531Z,30.54
